sensor_id;sensor_type;location;lat;lon;timestamp;pressure;altitude;pressure_sealevel;temperature;humidity
54329;BME280;40710;51.120;13.136;2023-04-10T00:00:17;100340.84;;;7.41;62.66
54329;BME280;40710;51.120;13.136;2023-04-10T00:02:42;100344.09;;;7.13;62.96
54329;BME280;40710;51.120;13.136;2023-04-10T00:05:08;100339.63;;;7.18;63.19
54329;BME280;40710;51.120;13.136;2023-04-10T00:07:32;100341.72;;;7.42;63.11
54329;BME280;40710;51.120;13.136;2023-04-10T00:09:57;100349.94;;;7.26;63.35
54329;BME280;40710;51.120;13.136;2023-04-10T00:12:21;100337.13;;;7.15;63.04
54329;BME280;40710;51.120;13.136;2023-04-10T00:14:46;100337.13;;;6.75;63.44
54329;BME280;40710;51.120;13.136;2023-04-10T00:17:11;100349.25;;;6.37;65.39
54329;BME280;40710;51.120;13.136;2023-04-10T00:19:35;100348.81;;;6.58;65.15
54329;BME280;40710;51.120;13.136;2023-04-10T00:22:00;100346.88;;;6.68;65.20
54329;BME280;40710;51.120;13.136;2023-04-10T00:24:24;100343.59;;;6.97;64.26
54329;BME280;40710;51.120;13.136;2023-04-10T00:26:49;100351.84;;;6.38;65.68
54329;BME280;40710;51.120;13.136;2023-04-10T00:29:13;100350.41;;;6.66;64.88
54329;BME280;40710;51.120;13.136;2023-04-10T00:31:38;100345.84;;;6.75;64.53
54329;BME280;40710;51.120;13.136;2023-04-10T00:34:03;100350.78;;;6.47;64.62
54329;BME280;40710;51.120;13.136;2023-04-10T00:36:27;100346.56;;;5.96;66.55
54329;BME280;40710;51.120;13.136;2023-04-10T00:38:52;100349.16;;;5.95;66.85
54329;BME280;40710;51.120;13.136;2023-04-10T00:41:17;100345.00;;;5.84;67.32
54329;BME280;40710;51.120;13.136;2023-04-10T00:43:43;100336.91;;;6.00;67.12
54329;BME280;40710;51.120;13.136;2023-04-10T00:46:07;100340.00;;;5.72;67.14
54329;BME280;40710;51.120;13.136;2023-04-10T00:48:32;100335.25;;;5.96;66.76
54329;BME280;40710;51.120;13.136;2023-04-10T00:50:57;100344.63;;;6.06;67.16
54329;BME280;40710;51.120;13.136;2023-04-10T00:53:22;100335.00;;;6.08;66.66
54329;BME280;40710;51.120;13.136;2023-04-10T00:55:48;100324.47;;;6.56;64.64
54329;BME280;40710;51.120;13.136;2023-04-10T00:58:13;100336.94;;;5.98;66.12
54329;BME280;40710;51.120;13.136;2023-04-10T01:00:38;100328.47;;;6.31;65.95
54329;BME280;40710;51.120;13.136;2023-04-10T01:03:03;100329.31;;;6.33;65.18
54329;BME280;40710;51.120;13.136;2023-04-10T01:05:34;100318.13;;;6.70;64.03
54329;BME280;40710;51.120;13.136;2023-04-10T01:08:16;100333.41;;;6.46;65.12
54329;BME280;40710;51.120;13.136;2023-04-10T01:11:00;100323.72;;;6.51;64.28
54329;BME280;40710;51.120;13.136;2023-04-10T01:13:42;100326.59;;;6.39;64.07
54329;BME280;40710;51.120;13.136;2023-04-10T01:16:19;100326.59;;;6.39;64.21
54329;BME280;40710;51.120;13.136;2023-04-10T01:19:02;100334.75;;;5.74;66.27
54329;BME280;40710;51.120;13.136;2023-04-10T01:21:34;100333.84;;;5.75;66.78
54329;BME280;40710;51.120;13.136;2023-04-10T01:29:22;100330.00;;;5.97;65.88
54329;BME280;40710;51.120;13.136;2023-04-10T01:31:53;100330.94;;;5.92;66.03
54329;BME280;40710;51.120;13.136;2023-04-10T01:34:27;100325.28;;;6.16;64.91
54329;BME280;40710;51.120;13.136;2023-04-10T01:36:59;100327.94;;;5.65;65.86
54329;BME280;40710;51.120;13.136;2023-04-10T01:39:26;100318.19;;;6.24;64.74
54329;BME280;40710;51.120;13.136;2023-04-10T01:41:53;100316.38;;;6.27;64.69
54329;BME280;40710;51.120;13.136;2023-04-10T01:44:27;100314.53;;;5.85;65.26
54329;BME280;40710;51.120;13.136;2023-04-10T01:46:55;100316.69;;;5.63;66.58
54329;BME280;40710;51.120;13.136;2023-04-10T01:49:24;100322.09;;;6.02;65.37
54329;BME280;40710;51.120;13.136;2023-04-10T01:51:50;100323.34;;;5.79;64.71
54329;BME280;40710;51.120;13.136;2023-04-10T01:54:16;100333.00;;;5.74;67.01
54329;BME280;40710;51.120;13.136;2023-04-10T01:56:40;100334.78;;;5.72;65.81
54329;BME280;40710;51.120;13.136;2023-04-10T01:59:05;100326.47;;;5.48;67.42
54329;BME280;40710;51.120;13.136;2023-04-10T02:01:30;100331.38;;;5.67;67.26
54329;BME280;40710;51.120;13.136;2023-04-10T02:03:54;100331.78;;;5.44;67.36
54329;BME280;40710;51.120;13.136;2023-04-10T02:06:48;100315.63;;;5.73;66.58
54329;BME280;40710;51.120;13.136;2023-04-10T02:09:22;100314.47;;;5.90;65.74
54329;BME280;40710;51.120;13.136;2023-04-10T02:12:01;100314.22;;;5.54;65.73
54329;BME280;40710;51.120;13.136;2023-04-10T02:14:31;100306.50;;;5.97;65.26
54329;BME280;40710;51.120;13.136;2023-04-10T02:16:59;100316.38;;;5.30;66.37
54329;BME280;40710;51.120;13.136;2023-04-10T02:19:26;100309.88;;;5.54;66.53
54329;BME280;40710;51.120;13.136;2023-04-10T02:21:52;100315.94;;;5.02;68.05
54329;BME280;40710;51.120;13.136;2023-04-10T02:24:18;100310.53;;;5.67;66.67
54329;BME280;40710;51.120;13.136;2023-04-10T02:26:45;100306.38;;;5.55;66.75
54329;BME280;40710;51.120;13.136;2023-04-10T02:29:09;100299.59;;;4.90;68.05
54329;BME280;40710;51.120;13.136;2023-04-10T02:31:34;100319.72;;;4.81;67.67
54329;BME280;40710;51.120;13.136;2023-04-10T02:33:58;100325.44;;;5.04;68.05
54329;BME280;40710;51.120;13.136;2023-04-10T02:36:23;100319.94;;;5.76;65.82
54329;BME280;40710;51.120;13.136;2023-04-10T02:38:48;100321.22;;;5.52;65.85
54329;BME280;40710;51.120;13.136;2023-04-10T02:41:13;100324.03;;;5.38;66.27
54329;BME280;40710;51.120;13.136;2023-04-10T02:43:38;100327.13;;;5.63;66.67
54329;BME280;40710;51.120;13.136;2023-04-10T02:46:03;100325.59;;;5.49;66.11
54329;BME280;40710;51.120;13.136;2023-04-10T02:48:28;100328.34;;;5.42;67.01
54329;BME280;40710;51.120;13.136;2023-04-10T02:50:56;100324.31;;;5.74;65.48
54329;BME280;40710;51.120;13.136;2023-04-10T02:53:21;100318.38;;;5.65;65.14
54329;BME280;40710;51.120;13.136;2023-04-10T02:55:46;100318.44;;;5.61;65.24
54329;BME280;40710;51.120;13.136;2023-04-10T02:58:10;100318.63;;;5.50;65.94
54329;BME280;40710;51.120;13.136;2023-04-10T03:00:35;100309.88;;;6.04;64.67
54329;BME280;40710;51.120;13.136;2023-04-10T03:03:00;100306.47;;;5.99;64.52
54329;BME280;40710;51.120;13.136;2023-04-10T03:05:24;100313.75;;;5.80;64.47
54329;BME280;40710;51.120;13.136;2023-04-10T03:07:50;100317.66;;;5.56;65.12
54329;BME280;40710;51.120;13.136;2023-04-10T03:10:14;100317.78;;;5.99;64.58
54329;BME280;40710;51.120;13.136;2023-04-10T03:12:39;100319.41;;;5.55;65.96
54329;BME280;40710;51.120;13.136;2023-04-10T03:15:04;100298.34;;;5.66;64.66
54329;BME280;40710;51.120;13.136;2023-04-10T03:17:29;100309.47;;;5.77;64.96
54329;BME280;40710;51.120;13.136;2023-04-10T03:19:53;100321.63;;;5.27;66.80
54329;BME280;40710;51.120;13.136;2023-04-10T03:22:18;100317.16;;;5.34;65.90
54329;BME280;40710;51.120;13.136;2023-04-10T03:24:43;100308.88;;;4.48;67.42
54329;BME280;40710;51.120;13.136;2023-04-10T03:27:07;100317.41;;;5.18;66.79
54329;BME280;40710;51.120;13.136;2023-04-10T03:29:32;100298.28;;;5.19;66.96
54329;BME280;40710;51.120;13.136;2023-04-10T03:31:57;100313.81;;;5.25;66.25
54329;BME280;40710;51.120;13.136;2023-04-10T03:34:21;100310.31;;;5.29;66.28
54329;BME280;40710;51.120;13.136;2023-04-10T03:36:46;100313.50;;;5.45;66.33
54329;BME280;40710;51.120;13.136;2023-04-10T03:39:11;100307.59;;;5.34;66.55
54329;BME280;40710;51.120;13.136;2023-04-10T03:41:35;100309.50;;;5.26;65.63
54329;BME280;40710;51.120;13.136;2023-04-10T03:44:00;100293.59;;;5.40;65.03
54329;BME280;40710;51.120;13.136;2023-04-10T03:46:26;100312.75;;;5.37;65.70
54329;BME280;40710;51.120;13.136;2023-04-10T03:48:51;100314.50;;;4.82;67.62
54329;BME280;40710;51.120;13.136;2023-04-10T03:51:17;100305.97;;;4.69;67.57
54329;BME280;40710;51.120;13.136;2023-04-10T03:53:41;100325.63;;;4.90;67.28
54329;BME280;40710;51.120;13.136;2023-04-10T03:56:07;100333.81;;;4.63;67.98
54329;BME280;40710;51.120;13.136;2023-04-10T03:58:31;100301.06;;;5.08;66.12
54329;BME280;40710;51.120;13.136;2023-04-10T04:00:56;100318.00;;;5.36;65.70
54329;BME280;40710;51.120;13.136;2023-04-10T04:03:21;100326.06;;;5.20;66.05
54329;BME280;40710;51.120;13.136;2023-04-10T04:05:45;100336.88;;;4.94;67.73
54329;BME280;40710;51.120;13.136;2023-04-10T04:08:10;100326.97;;;5.19;65.97
54329;BME280;40710;51.120;13.136;2023-04-10T04:10:35;100330.56;;;5.10;66.45
54329;BME280;40710;51.120;13.136;2023-04-10T04:13:00;100333.19;;;5.09;65.56
54329;BME280;40710;51.120;13.136;2023-04-10T04:15:24;100334.09;;;5.61;67.11
54329;BME280;40710;51.120;13.136;2023-04-10T04:17:49;100327.38;;;5.97;66.02
54329;BME280;40710;51.120;13.136;2023-04-10T04:20:14;100318.34;;;6.15;64.12
54329;BME280;40710;51.120;13.136;2023-04-10T04:22:39;100320.88;;;6.20;63.84
54329;BME280;40710;51.120;13.136;2023-04-10T04:25:04;100319.50;;;6.00;64.03
54329;BME280;40710;51.120;13.136;2023-04-10T04:27:32;100322.13;;;6.00;62.98
54329;BME280;40710;51.120;13.136;2023-04-10T04:29:56;100320.31;;;6.04;63.24
54329;BME280;40710;51.120;13.136;2023-04-10T04:32:21;100303.56;;;5.66;63.85
54329;BME280;40710;51.120;13.136;2023-04-10T04:34:45;100315.00;;;5.59;63.58
54329;BME280;40710;51.120;13.136;2023-04-10T04:37:10;100328.44;;;5.36;65.75
54329;BME280;40710;51.120;13.136;2023-04-10T04:39:34;100320.56;;;5.88;63.75
54329;BME280;40710;51.120;13.136;2023-04-10T04:41:59;100322.13;;;5.51;64.74
54329;BME280;40710;51.120;13.136;2023-04-10T04:44:24;100325.81;;;5.85;64.82
54329;BME280;40710;51.120;13.136;2023-04-10T04:46:49;100317.09;;;6.35;62.89
54329;BME280;40710;51.120;13.136;2023-04-10T04:49:13;100329.38;;;5.81;64.04
54329;BME280;40710;51.120;13.136;2023-04-10T04:51:38;100335.09;;;6.05;63.34
54329;BME280;40710;51.120;13.136;2023-04-10T04:54:03;100327.94;;;6.15;62.99
54329;BME280;40710;51.120;13.136;2023-04-10T04:56:27;100333.38;;;6.02;62.89
54329;BME280;40710;51.120;13.136;2023-04-10T04:58:52;100338.72;;;5.95;64.06
54329;BME280;40710;51.120;13.136;2023-04-10T05:01:16;100333.94;;;5.70;64.64
54329;BME280;40710;51.120;13.136;2023-04-10T05:03:41;100321.94;;;5.60;64.50
54329;BME280;40710;51.120;13.136;2023-04-10T05:06:05;100343.25;;;5.83;64.31
54329;BME280;40710;51.120;13.136;2023-04-10T05:08:30;100346.69;;;5.36;65.09
54329;BME280;40710;51.120;13.136;2023-04-10T05:10:55;100351.19;;;5.79;65.64
54329;BME280;40710;51.120;13.136;2023-04-10T05:13:19;100319.72;;;6.35;63.04
54329;BME280;40710;51.120;13.136;2023-04-10T05:15:44;100332.03;;;6.28;62.49
54329;BME280;40710;51.120;13.136;2023-04-10T05:18:09;100342.06;;;6.03;63.00
54329;BME280;40710;51.120;13.136;2023-04-10T05:20:34;100340.00;;;5.72;63.68
54329;BME280;40710;51.120;13.136;2023-04-10T05:22:59;100343.63;;;5.62;64.05
54329;BME280;40710;51.120;13.136;2023-04-10T05:25:24;100353.41;;;6.02;64.03
54329;BME280;40710;51.120;13.136;2023-04-10T05:27:48;100347.59;;;5.84;64.15
54329;BME280;40710;51.120;13.136;2023-04-10T05:30:13;100349.34;;;5.84;64.26
54329;BME280;40710;51.120;13.136;2023-04-10T05:32:37;100350.38;;;5.75;64.80
54329;BME280;40710;51.120;13.136;2023-04-10T05:35:02;100331.16;;;5.79;64.38
54329;BME280;40710;51.120;13.136;2023-04-10T05:37:27;100348.13;;;6.05;63.91
54329;BME280;40710;51.120;13.136;2023-04-10T05:39:51;100335.41;;;5.35;65.01
54329;BME280;40710;51.120;13.136;2023-04-10T05:42:16;100342.22;;;5.92;64.29
54329;BME280;40710;51.120;13.136;2023-04-10T05:44:40;100337.19;;;6.31;63.47
54329;BME280;40710;51.120;13.136;2023-04-10T05:47:05;100344.13;;;6.31;63.91
54329;BME280;40710;51.120;13.136;2023-04-10T05:49:29;100351.28;;;5.71;65.08
54329;BME280;40710;51.120;13.136;2023-04-10T05:51:54;100335.16;;;6.86;62.20
54329;BME280;40710;51.120;13.136;2023-04-10T05:54:18;100340.50;;;6.38;64.03
54329;BME280;40710;51.120;13.136;2023-04-10T05:56:43;100338.66;;;6.43;63.20
54329;BME280;40710;51.120;13.136;2023-04-10T05:59:08;100325.59;;;6.85;62.60
54329;BME280;40710;51.120;13.136;2023-04-10T06:01:32;100314.00;;;6.97;61.94
54329;BME280;40710;51.120;13.136;2023-04-10T06:03:57;100325.72;;;7.18;60.94
54329;BME280;40710;51.120;13.136;2023-04-10T06:06:21;100324.44;;;7.34;60.39
54329;BME280;40710;51.120;13.136;2023-04-10T06:08:47;100330.53;;;6.97;62.41
54329;BME280;40710;51.120;13.136;2023-04-10T06:11:12;100327.44;;;7.19;61.62
54329;BME280;40710;51.120;13.136;2023-04-10T06:13:36;100315.78;;;7.67;60.74
54329;BME280;40710;51.120;13.136;2023-04-10T06:16:01;100310.81;;;7.90;60.13
54329;BME280;40710;51.120;13.136;2023-04-10T06:18:25;100302.16;;;8.20;58.59
54329;BME280;40710;51.120;13.136;2023-04-10T06:20:50;100297.53;;;7.65;59.61
54329;BME280;40710;51.120;13.136;2023-04-10T06:23:15;100303.56;;;8.00;59.37
54329;BME280;40710;51.120;13.136;2023-04-10T06:25:40;100317.03;;;7.86;60.05
54329;BME280;40710;51.120;13.136;2023-04-10T06:28:05;100297.56;;;8.87;57.46
54329;BME280;40710;51.120;13.136;2023-04-10T06:30:29;100300.66;;;8.72;58.00
54329;BME280;40710;51.120;13.136;2023-04-10T06:32:54;100300.41;;;8.80;57.61
54329;BME280;40710;51.120;13.136;2023-04-10T06:35:19;100291.91;;;9.28;56.27
54329;BME280;40710;51.120;13.136;2023-04-10T06:37:44;100291.66;;;9.09;57.04
54329;BME280;40710;51.120;13.136;2023-04-10T06:40:10;100286.16;;;9.43;55.79
54329;BME280;40710;51.120;13.136;2023-04-10T06:42:35;100289.41;;;9.50;56.12
54329;BME280;40710;51.120;13.136;2023-04-10T06:45:00;100282.41;;;10.01;55.33
54329;BME280;40710;51.120;13.136;2023-04-10T06:47:25;100274.59;;;9.99;55.42
54329;BME280;40710;51.120;13.136;2023-04-10T06:49:50;100274.59;;;10.70;53.88
54329;BME280;40710;51.120;13.136;2023-04-10T06:52:15;100267.25;;;11.01;53.38
54329;BME280;40710;51.120;13.136;2023-04-10T06:54:40;100263.28;;;10.90;53.94
54329;BME280;40710;51.120;13.136;2023-04-10T06:57:05;100268.63;;;11.31;53.19
54329;BME280;40710;51.120;13.136;2023-04-10T06:59:30;100256.38;;;11.30;52.83
54329;BME280;40710;51.120;13.136;2023-04-10T07:01:57;100260.16;;;11.45;52.29
54329;BME280;40710;51.120;13.136;2023-04-10T07:04:21;100262.00;;;11.84;52.29
54329;BME280;40710;51.120;13.136;2023-04-10T07:06:46;100257.09;;;12.16;51.56
54329;BME280;40710;51.120;13.136;2023-04-10T07:09:10;100258.72;;;12.57;50.66
54329;BME280;40710;51.120;13.136;2023-04-10T07:11:35;100250.25;;;13.05;49.91
54329;BME280;40710;51.120;13.136;2023-04-10T07:13:59;100241.09;;;13.13;49.23
54329;BME280;40710;51.120;13.136;2023-04-10T07:16:24;100248.00;;;13.52;48.80
54329;BME280;40710;51.120;13.136;2023-04-10T07:18:49;100242.72;;;13.34;48.73
54329;BME280;40710;51.120;13.136;2023-04-10T07:21:13;100232.53;;;13.95;47.96
54329;BME280;40710;51.120;13.136;2023-04-10T07:23:39;100231.41;;;14.32;46.98
54329;BME280;40710;51.120;13.136;2023-04-10T07:26:04;100235.69;;;14.67;46.17
54329;BME280;40710;51.120;13.136;2023-04-10T07:28:28;100228.78;;;15.41;44.84
54329;BME280;40710;51.120;13.136;2023-04-10T07:30:53;100212.75;;;15.58;44.76
54329;BME280;40710;51.120;13.136;2023-04-10T07:33:18;100219.44;;;16.09;44.13
54329;BME280;40710;51.120;13.136;2023-04-10T07:35:42;100219.09;;;16.42;43.17
54329;BME280;40710;51.120;13.136;2023-04-10T07:38:07;100215.97;;;16.50;42.98
54329;BME280;40710;51.120;13.136;2023-04-10T07:40:31;100209.63;;;17.19;41.83
54329;BME280;40710;51.120;13.136;2023-04-10T07:42:56;100201.41;;;17.50;40.92
54329;BME280;40710;51.120;13.136;2023-04-10T07:45:20;100211.00;;;17.78;40.48
54329;BME280;40710;51.120;13.136;2023-04-10T07:47:45;100198.78;;;18.38;39.06
54329;BME280;40710;51.120;13.136;2023-04-10T07:50:09;100206.47;;;18.30;39.14
54329;BME280;40710;51.120;13.136;2023-04-10T07:52:34;100194.75;;;18.94;37.07
54329;BME280;40710;51.120;13.136;2023-04-10T07:55:02;100191.16;;;19.53;35.81
54329;BME280;40710;51.120;13.136;2023-04-10T07:57:27;100204.09;;;18.99;36.80
54329;BME280;40710;51.120;13.136;2023-04-10T07:59:52;100198.38;;;18.93;37.10
54329;BME280;40710;51.120;13.136;2023-04-10T08:02:16;100186.81;;;19.52;35.82
54329;BME280;40710;51.120;13.136;2023-04-10T08:04:41;100184.91;;;20.21;35.29
54329;BME280;40710;51.120;13.136;2023-04-10T08:07:05;100181.06;;;20.69;34.58
54329;BME280;40710;51.120;13.136;2023-04-10T08:09:30;100183.38;;;20.74;34.74
54329;BME280;40710;51.120;13.136;2023-04-10T08:11:55;100170.81;;;22.10;32.39
54329;BME280;40710;51.120;13.136;2023-04-10T08:14:20;100188.16;;;21.33;33.05
54329;BME280;40710;51.120;13.136;2023-04-10T08:16:44;100180.69;;;22.00;32.37
54329;BME280;40710;51.120;13.136;2023-04-10T08:19:09;100167.97;;;23.50;30.64
54329;BME280;40710;51.120;13.136;2023-04-10T08:21:33;100170.56;;;24.17;29.05
54329;BME280;40710;51.120;13.136;2023-04-10T08:24:00;100166.25;;;23.96;29.35
54329;BME280;40710;51.120;13.136;2023-04-10T08:26:26;100181.44;;;23.21;31.22
54329;BME280;40710;51.120;13.136;2023-04-10T08:28:52;100175.59;;;23.55;30.34
54329;BME280;40710;51.120;13.136;2023-04-10T08:31:19;100167.75;;;22.85;30.92
54329;BME280;40710;51.120;13.136;2023-04-10T08:33:44;100166.38;;;24.05;29.25
54329;BME280;40710;51.120;13.136;2023-04-10T08:36:09;100159.56;;;25.28;27.72
54329;BME280;40710;51.120;13.136;2023-04-10T08:38:33;100169.16;;;25.31;27.78
54329;BME280;40710;51.120;13.136;2023-04-10T08:40:58;100170.69;;;25.33;28.10
54329;BME280;40710;51.120;13.136;2023-04-10T08:43:22;100164.09;;;26.14;26.59
54329;BME280;40710;51.120;13.136;2023-04-10T08:45:47;100150.47;;;25.81;26.55
54329;BME280;40710;51.120;13.136;2023-04-10T08:48:14;100143.63;;;26.30;25.73
54329;BME280;40710;51.120;13.136;2023-04-10T08:50:41;100159.25;;;26.34;26.17
54329;BME280;40710;51.120;13.136;2023-04-10T08:53:11;100150.13;;;25.50;26.98
54329;BME280;40710;51.120;13.136;2023-04-10T08:55:38;100148.22;;;25.69;26.99
54329;BME280;40710;51.120;13.136;2023-04-10T08:58:03;100148.41;;;25.75;27.00
54329;BME280;40710;51.120;13.136;2023-04-10T09:00:32;100128.63;;;26.44;25.75
54329;BME280;40710;51.120;13.136;2023-04-10T09:02:57;100132.88;;;26.54;24.81
54329;BME280;40710;51.120;13.136;2023-04-10T09:05:26;100143.44;;;27.63;23.72
54329;BME280;40710;51.120;13.136;2023-04-10T09:07:51;100160.63;;;25.35;25.98
54329;BME280;40710;51.120;13.136;2023-04-10T09:10:15;100137.59;;;25.67;26.14
54329;BME280;40710;51.120;13.136;2023-04-10T09:12:45;100132.38;;;27.41;24.51
54329;BME280;40710;51.120;13.136;2023-04-10T09:15:10;100120.19;;;28.33;23.23
54329;BME280;40710;51.120;13.136;2023-04-10T09:17:35;100119.09;;;28.19;22.87
54329;BME280;40710;51.120;13.136;2023-04-10T09:19:59;100103.94;;;29.25;22.28
54329;BME280;40710;51.120;13.136;2023-04-10T09:22:34;100109.38;;;28.64;22.86
54329;BME280;40710;51.120;13.136;2023-04-10T09:25:00;100112.56;;;28.67;22.92
54329;BME280;40710;51.120;13.136;2023-04-10T09:27:33;100107.63;;;28.17;23.17
54329;BME280;40710;51.120;13.136;2023-04-10T09:29:58;100098.56;;;28.64;23.10
54329;BME280;40710;51.120;13.136;2023-04-10T09:32:41;100112.41;;;27.67;24.35
54329;BME280;40710;51.120;13.136;2023-04-10T09:35:08;100102.00;;;28.58;22.81
54329;BME280;40710;51.120;13.136;2023-04-10T09:37:34;100113.81;;;26.56;25.87
54329;BME280;40710;51.120;13.136;2023-04-10T09:40:00;100092.03;;;29.11;22.73
54329;BME280;40710;51.120;13.136;2023-04-10T09:42:35;100109.69;;;26.02;26.79
54329;BME280;40710;51.120;13.136;2023-04-10T09:45:00;100114.06;;;25.69;26.62
54329;BME280;40710;51.120;13.136;2023-04-10T09:47:26;100096.97;;;26.54;25.00
54329;BME280;40710;51.120;13.136;2023-04-10T09:49:53;100075.75;;;29.19;22.55
54329;BME280;40710;51.120;13.136;2023-04-10T09:52:31;100083.16;;;27.06;24.51
54329;BME280;40710;51.120;13.136;2023-04-10T09:54:59;100084.38;;;26.71;25.37
54329;BME280;40710;51.120;13.136;2023-04-10T09:57:27;100057.16;;;27.78;24.13
54329;BME280;40710;51.120;13.136;2023-04-10T09:59:53;100067.34;;;26.78;24.84
54329;BME280;40710;51.120;13.136;2023-04-10T10:02:20;100056.72;;;28.05;23.73
54329;BME280;40710;51.120;13.136;2023-04-10T10:04:46;100067.75;;;26.08;25.70
54329;BME280;40710;51.120;13.136;2023-04-10T10:07:15;100058.53;;;27.17;24.96
54329;BME280;40710;51.120;13.136;2023-04-10T10:09:45;100043.16;;;27.74;23.98
54329;BME280;40710;51.120;13.136;2023-04-10T10:12:11;100046.94;;;26.59;25.30
54329;BME280;40710;51.120;13.136;2023-04-10T10:15:00;100030.44;;;29.13;22.91
54329;BME280;40710;51.120;13.136;2023-04-10T10:18:06;100045.03;;;25.25;27.02
54329;BME280;40710;51.120;13.136;2023-04-10T10:20:23;100018.09;;;27.57;24.59
54329;BME280;40710;51.120;13.136;2023-04-10T10:22:49;100029.63;;;26.62;25.11
54329;BME280;40710;51.120;13.136;2023-04-10T10:25:14;100023.69;;;26.26;26.90
54329;BME280;40710;51.120;13.136;2023-04-10T10:27:40;100045.34;;;24.16;27.97
54329;BME280;40710;51.120;13.136;2023-04-10T10:30:06;100052.72;;;23.21;29.46
54329;BME280;40710;51.120;13.136;2023-04-10T10:32:34;100060.38;;;21.99;30.89
54329;BME280;40710;51.120;13.136;2023-04-10T10:34:59;100039.84;;;22.77;29.78
54329;BME280;40710;51.120;13.136;2023-04-10T10:37:28;100036.56;;;22.93;29.71
54329;BME280;40710;51.120;13.136;2023-04-10T10:45:17;99991.28;;;27.08;26.04
54329;BME280;40710;51.120;13.136;2023-04-10T10:47:49;99991.38;;;27.70;25.02
54329;BME280;40710;51.120;13.136;2023-04-10T10:50:14;100007.31;;;23.19;29.09
54329;BME280;40710;51.120;13.136;2023-04-10T10:52:49;100020.69;;;22.33;30.84
54329;BME280;40710;51.120;13.136;2023-04-10T10:57:51;99986.84;;;24.90;28.99
54329;BME280;40710;51.120;13.136;2023-04-10T11:00:16;99991.09;;;24.75;30.47
54329;BME280;40710;51.120;13.136;2023-04-10T11:02:41;99972.84;;;25.13;27.90
54329;BME280;40710;51.120;13.136;2023-04-10T11:05:06;99967.94;;;26.10;27.05
54329;BME280;40710;51.120;13.136;2023-04-10T11:08:06;99977.31;;;23.62;29.94
54329;BME280;40710;51.120;13.136;2023-04-10T11:10:58;99990.34;;;22.23;31.77
54329;BME280;40710;51.120;13.136;2023-04-10T11:13:24;99993.59;;;21.78;32.88
54329;BME280;40710;51.120;13.136;2023-04-10T11:15:50;99982.94;;;21.47;32.76
54329;BME280;40710;51.120;13.136;2023-04-10T11:18:15;99978.19;;;21.60;32.40
54329;BME280;40710;51.120;13.136;2023-04-10T11:21:08;99951.53;;;23.69;29.63
54329;BME280;40710;51.120;13.136;2023-04-10T11:23:34;99926.53;;;26.27;26.10
54329;BME280;40710;51.120;13.136;2023-04-10T11:25:59;99926.16;;;26.38;25.77
54329;BME280;40710;51.120;13.136;2023-04-10T11:28:35;99935.56;;;25.85;27.02
54329;BME280;40710;51.120;13.136;2023-04-10T11:31:19;99917.56;;;25.77;25.78
54329;BME280;40710;51.120;13.136;2023-04-10T11:33:47;99917.41;;;25.87;25.67
54329;BME280;40710;51.120;13.136;2023-04-10T11:36:15;99919.28;;;26.11;25.67
54329;BME280;40710;51.120;13.136;2023-04-10T11:39:02;99916.78;;;24.91;27.55
54329;BME280;40710;51.120;13.136;2023-04-10T11:41:31;99921.72;;;24.52;28.31
54329;BME280;40710;51.120;13.136;2023-04-10T11:43:57;99931.72;;;23.34;28.87
54329;BME280;40710;51.120;13.136;2023-04-10T11:46:21;99936.78;;;22.62;29.82
54329;BME280;40710;51.120;13.136;2023-04-10T11:48:46;99935.69;;;22.25;29.72
54329;BME280;40710;51.120;13.136;2023-04-10T11:51:12;99943.31;;;21.91;30.85
54329;BME280;40710;51.120;13.136;2023-04-10T11:53:37;99928.50;;;22.26;30.37
54329;BME280;40710;51.120;13.136;2023-04-10T11:56:02;99904.53;;;24.97;26.93
54329;BME280;40710;51.120;13.136;2023-04-10T11:58:29;99889.78;;;24.75;27.19
54329;BME280;40710;51.120;13.136;2023-04-10T12:00:55;99896.38;;;25.82;26.82
54329;BME280;40710;51.120;13.136;2023-04-10T12:03:40;99894.69;;;24.80;28.07
54329;BME280;40710;51.120;13.136;2023-04-10T12:06:13;99888.06;;;25.59;26.95
54329;BME280;40710;51.120;13.136;2023-04-10T12:08:43;99878.53;;;26.22;26.79
54329;BME280;40710;51.120;13.136;2023-04-10T12:11:09;99882.03;;;25.65;27.21
54329;BME280;40710;51.120;13.136;2023-04-10T12:13:34;99884.16;;;24.95;27.68
54329;BME280;40710;51.120;13.136;2023-04-10T12:16:01;99876.53;;;26.08;26.24
54329;BME280;40710;51.120;13.136;2023-04-10T12:18:28;99857.00;;;26.78;25.70
54329;BME280;40710;51.120;13.136;2023-04-10T12:20:54;99860.34;;;25.92;27.21
54329;BME280;40710;51.120;13.136;2023-04-10T12:23:24;99861.34;;;24.12;27.44
54329;BME280;40710;51.120;13.136;2023-04-10T12:25:49;99876.25;;;23.52;28.76
54329;BME280;40710;51.120;13.136;2023-04-10T12:28:18;99870.63;;;22.05;27.27
54329;BME280;40710;51.120;13.136;2023-04-10T12:30:50;99858.72;;;22.84;24.17
54329;BME280;40710;51.120;13.136;2023-04-10T12:33:22;99858.22;;;22.61;23.65
54329;BME280;40710;51.120;13.136;2023-04-10T12:35:47;99850.50;;;23.95;23.23
54329;BME280;40710;51.120;13.136;2023-04-10T12:38:11;99850.34;;;23.43;22.70
54329;BME280;40710;51.120;13.136;2023-04-10T12:40:36;99843.03;;;24.07;22.67
54329;BME280;40710;51.120;13.136;2023-04-10T12:43:01;99828.94;;;24.66;21.80
54329;BME280;40710;51.120;13.136;2023-04-10T12:45:44;99822.25;;;24.44;21.38
54329;BME280;40710;51.120;13.136;2023-04-10T12:48:09;99834.53;;;23.94;22.32
54329;BME280;40710;51.120;13.136;2023-04-10T12:50:45;99835.00;;;24.42;23.00
54329;BME280;40710;51.120;13.136;2023-04-10T12:53:10;99843.09;;;23.08;23.30
54329;BME280;40710;51.120;13.136;2023-04-10T12:55:36;99841.78;;;22.56;24.18
54329;BME280;40710;51.120;13.136;2023-04-10T12:58:15;99817.22;;;23.52;23.58